Time;durP1;ratioP1;P1;durP2;ratioP2;P2;SDS_P1;SDS_P2;PMS_P1;PMS_P2;Temp;Humidity;BMP_temperature;BMP_pressure;BME280_temperature;BME280_humidity;BME280_pressure;Samples;Min_cycle;Max_cycle;Signal;HPM_P1;HPM_P2
2022/11/08 00:01:57;;;;;;;2.10;1.97;;;10.20;99.90;;;;;;5007125;28;20359;-72
2022/11/08 00:04:23;;;;;;;5.70;2.20;;;10.20;99.90;;;;;;5011806;28;21025;-73
2022/11/08 00:15:04;;;;;;;1.50;1.40;;;10.20;99.90;;;;;;5033344;28;20487;-72
2022/11/08 00:17:31;;;;;;;1.90;1.80;;;10.10;99.90;;;;;;5043596;28;20899;-73
2022/11/08 00:19:56;;;;;;;2.30;2.10;;;10.10;99.90;;;;;;5030020;28;20889;-73
2022/11/08 00:22:23;;;;;;;2.87;2.40;;;10.10;99.90;;;;;;5009955;28;20463;-73
2022/11/08 00:24:50;;;;;;;2.83;2.07;;;10.10;99.90;;;;;;5024575;28;20270;-72
2022/11/08 00:27:21;;;;;;;2.50;2.10;;;10.10;99.90;;;;;;5018869;28;20468;-72
2022/11/08 00:29:47;;;;;;;2.53;2.20;;;10.10;99.90;;;;;;5024608;28;20466;-73
2022/11/08 00:32:17;;;;;;;2.90;2.00;;;10.10;99.90;;;;;;5044771;28;20839;-72
2022/11/08 00:34:43;;;;;;;2.63;2.30;;;9.90;99.90;;;;;;5026797;28;20456;-72
2022/11/08 00:37:10;;;;;;;5.37;2.57;;;9.80;99.90;;;;;;5027229;28;20463;-73
2022/11/08 00:39:35;;;;;;;7.13;2.27;;;9.80;99.90;;;;;;5024704;28;20459;-72
2022/11/08 00:42:02;;;;;;;3.10;2.10;;;9.80;99.90;;;;;;5028063;28;20455;-73
2022/11/08 00:44:27;;;;;;;2.40;1.90;;;9.90;99.90;;;;;;5049367;28;20220;-73
2022/11/08 00:46:53;;;;;;;4.60;1.63;;;9.80;99.90;;;;;;5045924;28;20916;-72
2022/11/08 00:49:19;;;;;;;2.90;2.13;;;9.80;99.90;;;;;;5033574;28;20283;-72
2022/11/08 00:51:45;;;;;;;2.20;2.00;;;9.80;99.90;;;;;;5040717;28;20216;-73
2022/11/08 00:54:16;;;;;;;2.23;2.13;;;9.80;99.90;;;;;;5027759;28;20220;-71
2022/11/08 00:56:42;;;;;;;1.80;1.50;;;9.80;99.90;;;;;;5043027;28;20270;-71
2022/11/08 00:59:11;;;;;;;3.00;1.90;;;9.80;99.90;;;;;;5013055;28;20492;-71
2022/11/08 01:01:37;;;;;;;2.20;1.93;;;9.70;99.90;;;;;;5024355;28;20467;-73
2022/11/08 01:04:03;;;;;;;3.70;2.00;;;9.60;99.90;;;;;;5026705;28;20459;-71
2022/11/08 01:06:30;;;;;;;1.80;1.70;;;9.70;99.90;;;;;;5019061;28;20208;-72
2022/11/08 01:08:55;;;;;;;2.87;2.10;;;9.70;99.90;;;;;;5023719;28;20465;-73
2022/11/08 01:11:23;;;;;;;2.43;1.83;;;9.70;99.90;;;;;;5027930;28;20463;-74
2022/11/08 01:13:49;;;;;;;1.87;1.50;;;9.60;99.90;;;;;;5027604;28;20208;-73
2022/11/08 01:16:18;;;;;;;3.80;2.20;;;9.50;99.90;;;;;;5034340;28;20450;-72
2022/11/08 01:18:45;;;;;;;3.40;2.10;;;9.50;99.90;;;;;;5028085;28;20463;-72
2022/11/08 01:21:12;;;;;;;1.97;1.87;;;9.50;99.90;;;;;;5033210;28;20469;-72
2022/11/08 01:23:39;;;;;;;4.67;2.47;;;9.50;99.90;;;;;;5034654;28;20447;-71
2022/11/08 01:26:07;;;;;;;2.30;2.07;;;9.50;99.90;;;;;;5020659;28;20459;-72
2022/11/08 01:28:34;;;;;;;2.57;2.00;;;9.50;99.90;;;;;;5026827;28;20485;-72
2022/11/08 01:31:08;;;;;;;1.93;1.53;;;9.40;99.90;;;;;;5028386;28;20542;-72
2022/11/08 01:33:34;;;;;;;2.10;1.90;;;9.50;99.90;;;;;;5033824;28;20539;-72
2022/11/08 01:36:00;;;;;;;2.73;1.87;;;9.50;99.90;;;;;;5019980;28;20858;-72
2022/11/08 01:38:26;;;;;;;2.70;1.50;;;9.50;99.90;;;;;;5029572;28;20236;-73
2022/11/08 01:40:52;;;;;;;2.97;2.03;;;9.50;99.90;;;;;;5023062;28;20225;-72
2022/11/08 01:43:56;;;;;;;4.87;1.80;;;9.50;99.90;;;;;;5023624;28;20470;-72
2022/11/08 01:46:40;;;;;;;4.50;1.60;;;9.50;99.90;;;;;;5044926;28;20510;-72
2022/11/08 01:49:17;;;;;;;1.73;1.63;;;9.50;99.90;;;;;;5030582;28;20479;-72
2022/11/08 01:52:07;;;;;;;2.70;2.20;;;9.50;99.90;;;;;;5030201;28;20459;-72
2022/11/08 01:54:42;;;;;;;3.23;2.20;;;9.50;99.90;;;;;;5032706;28;20436;-73
2022/11/08 01:57:12;;;;;;;3.50;3.07;;;9.50;99.90;;;;;;5024084;28;20477;-72
2022/11/08 01:59:41;;;;;;;6.60;2.70;;;9.40;99.90;;;;;;5029533;28;20471;-72
2022/11/08 02:02:08;;;;;;;3.10;2.03;;;9.40;99.90;;;;;;5024036;28;20505;-71
2022/11/08 02:04:34;;;;;;;4.10;2.10;;;9.30;99.90;;;;;;5033275;28;20451;-71
2022/11/08 02:07:01;;;;;;;4.13;2.23;;;9.30;99.90;;;;;;5039067;28;20557;-72
2022/11/08 02:09:27;;;;;;;2.40;1.80;;;9.20;99.90;;;;;;5033373;28;20459;-72
2022/11/08 02:11:53;;;;;;;1.70;1.60;;;9.10;99.90;;;;;;5059491;28;20500;-72
2022/11/08 02:14:20;;;;;;;3.20;1.87;;;9.00;99.90;;;;;;5034178;28;20210;-73
2022/11/08 02:16:46;;;;;;;2.27;2.07;;;8.90;99.90;;;;;;5051689;28;20456;-72
2022/11/08 02:19:47;;;;;;;3.77;2.33;;;9.00;99.90;;;;;;5012643;28;20796;-72
2022/11/08 02:22:24;;;;;;;6.20;1.70;;;9.10;99.90;;;;;;5033807;28;20208;-71
2022/11/08 02:24:50;;;;;;;2.83;1.70;;;9.10;99.90;;;;;;5055921;28;20855;-71
2022/11/08 02:27:15;;;;;;;2.90;2.00;;;9.10;99.90;;;;;;5033735;28;20473;-71
2022/11/08 02:29:41;;;;;;;4.00;2.33;;;9.10;99.90;;;;;;5031702;28;20221;-72
2022/11/08 02:32:07;;;;;;;2.40;2.07;;;9.10;99.90;;;;;;5054099;28;20221;-71
2022/11/08 02:34:44;;;;;;;3.83;2.17;;;9.10;99.90;;;;;;5036276;28;20216;-72
2022/11/08 02:37:11;;;;;;;4.57;2.53;;;9.10;99.90;;;;;;5048538;28;20245;-72
2022/11/08 02:39:36;;;;;;;2.13;1.90;;;9.00;99.90;;;;;;5032900;28;20976;-72
2022/11/08 02:42:02;;;;;;;3.50;2.43;;;9.00;99.90;;;;;;5040800;28;20473;-71
2022/11/08 02:44:28;;;;;;;3.60;2.10;;;9.10;99.90;;;;;;5035018;28;20243;-72
2022/11/08 02:46:54;;;;;;;4.93;2.43;;;9.10;99.90;;;;;;5039161;28;20279;-73
2022/11/08 02:49:19;;;;;;;3.17;2.10;;;9.10;99.90;;;;;;5032781;28;20230;-72
2022/11/08 02:51:45;;;;;;;2.47;2.27;;;9.00;99.90;;;;;;5023382;28;20217;-73
2022/11/08 02:54:10;;;;;;;6.80;2.90;;;9.00;99.90;;;;;;5056729;28;20600;-71
2022/11/08 02:56:36;;;;;;;5.27;2.57;;;9.00;99.90;;;;;;5034986;28;20216;-71
2022/11/08 02:59:02;;;;;;;3.27;2.70;;;9.00;99.90;;;;;;5032948;28;20216;-71
2022/11/08 03:01:27;;;;;;;3.53;2.50;;;9.00;99.90;;;;;;5035772;28;20216;-73
2022/11/08 03:03:53;;;;;;;9.20;2.60;;;9.00;99.90;;;;;;5047796;28;20273;-72
2022/11/08 03:06:19;;;;;;;4.00;3.00;;;9.00;99.90;;;;;;5023576;28;20251;-72
2022/11/08 03:08:44;;;;;;;6.80;3.03;;;9.00;99.90;;;;;;5020344;28;20323;-72
2022/11/08 03:11:10;;;;;;;2.50;2.30;;;9.00;99.90;;;;;;5040345;28;20256;-72
2022/11/08 03:13:36;;;;;;;4.63;2.97;;;8.90;99.90;;;;;;5018467;28;20227;-72
2022/11/08 03:16:03;;;;;;;5.10;3.50;;;8.90;99.90;;;;;;5052759;28;20224;-72
2022/11/08 03:18:29;;;;;;;6.67;2.53;;;8.90;99.90;;;;;;5033001;28;20634;-72
2022/11/08 03:20:54;;;;;;;5.23;3.17;;;8.90;99.90;;;;;;5048646;28;20505;-72
2022/11/08 03:23:20;;;;;;;5.20;2.80;;;8.90;99.90;;;;;;5037859;28;20320;-72
2022/11/08 03:25:46;;;;;;;4.03;3.10;;;8.90;99.90;;;;;;5022675;28;20217;-72
2022/11/08 03:28:12;;;;;;;4.43;3.10;;;8.90;99.90;;;;;;5031136;28;20220;-72
2022/11/08 03:30:37;;;;;;;6.93;3.10;;;8.80;99.90;;;;;;5028577;28;20213;-72
2022/11/08 03:33:03;;;;;;;5.33;3.67;;;8.80;99.90;;;;;;5053639;28;20221;-72
2022/11/08 03:35:30;;;;;;;4.60;3.13;;;8.80;99.90;;;;;;5035153;28;20221;-72
2022/11/08 03:37:56;;;;;;;4.67;3.13;;;8.80;99.90;;;;;;5037592;28;20591;-72
2022/11/08 03:40:23;;;;;;;5.80;2.77;;;8.70;99.90;;;;;;5028940;28;20550;-72
2022/11/08 03:42:49;;;;;;;6.37;3.90;;;8.70;99.90;;;;;;5033991;28;20447;-73
2022/11/08 03:45:15;;;;;;;3.93;3.00;;;8.70;99.90;;;;;;5038402;28;20972;-71
2022/11/08 03:47:43;;;;;;;3.47;2.90;;;8.70;99.90;;;;;;5048203;28;20220;-72
2022/11/08 03:50:09;;;;;;;3.70;2.80;;;8.60;99.90;;;;;;5048574;28;20467;-72
2022/11/08 03:52:48;;;;;;;4.83;3.43;;;8.60;99.90;;;;;;5031849;28;20452;-72
2022/11/08 03:55:15;;;;;;;13.00;3.90;;;8.60;99.90;;;;;;5021463;28;20470;-72
2022/11/08 03:57:42;;;;;;;7.00;3.13;;;8.60;99.90;;;;;;5029655;28;20463;-72
2022/11/08 04:00:10;;;;;;;4.43;3.43;;;8.60;99.90;;;;;;5037415;28;20456;-71
2022/11/08 04:02:39;;;;;;;3.63;3.23;;;8.60;99.90;;;;;;5032042;28;20451;-72
2022/11/08 04:05:05;;;;;;;3.20;2.90;;;8.60;99.90;;;;;;5030825;28;20530;-71
2022/11/08 04:07:31;;;;;;;7.47;3.93;;;8.60;99.90;;;;;;5026685;28;20475;-72
2022/11/08 04:09:57;;;;;;;4.43;2.97;;;8.60;99.90;;;;;;5039762;28;20511;-72
2022/11/08 04:15:21;;;;;;;5.93;3.37;;;8.60;99.90;;;;;;5038474;28;20240;-72
2022/11/08 04:23:29;;;;;;;5.83;4.47;;;8.50;99.90;;;;;;5046067;28;20519;-72
2022/11/08 04:25:57;;;;;;;7.27;4.73;;;8.50;99.90;;;;;;5035833;28;20451;-72
2022/11/08 04:28:29;;;;;;;7.37;5.00;;;8.50;99.90;;;;;;5034780;28;20609;-72
2022/11/08 04:30:57;;;;;;;7.07;4.20;;;8.50;99.90;;;;;;5035627;28;20477;-72
2022/11/08 04:33:24;;;;;;;7.00;4.57;;;8.40;99.90;;;;;;5034195;28;20466;-72
2022/11/08 04:35:50;;;;;;;8.60;4.67;;;8.40;99.90;;;;;;5032896;28;20522;-71
2022/11/08 04:38:17;;;;;;;6.73;4.70;;;8.40;99.90;;;;;;5031466;28;20550;-72
2022/11/08 04:40:43;;;;;;;9.50;5.47;;;8.40;99.90;;;;;;5027724;28;20979;-72
2022/11/08 04:43:09;;;;;;;7.70;5.40;;;8.40;99.90;;;;;;5039526;28;20452;-70
2022/11/08 04:45:35;;;;;;;10.07;6.30;;;8.40;99.90;;;;;;5020814;28;20460;-72
2022/11/08 04:48:00;;;;;;;10.77;5.97;;;8.50;99.90;;;;;;5038080;28;20326;-72
2022/11/08 04:50:26;;;;;;;7.43;5.10;;;8.40;99.90;;;;;;5034910;28;20229;-72
2022/11/08 04:52:53;;;;;;;8.67;4.90;;;8.40;99.90;;;;;;5029950;28;20224;-72
2022/11/08 04:55:20;;;;;;;10.63;5.10;;;8.40;99.90;;;;;;5046186;28;20212;-71
2022/11/08 04:57:47;;;;;;;7.03;4.93;;;8.50;99.90;;;;;;5032427;28;20459;-72
2022/11/08 05:00:14;;;;;;;11.57;6.03;;;8.50;99.90;;;;;;5036093;28;20463;-72
2022/11/08 05:02:40;;;;;;;7.53;5.60;;;8.50;99.90;;;;;;5032686;28;20451;-71
2022/11/08 05:05:06;;;;;;;8.97;5.27;;;8.50;99.90;;;;;;5030126;28;20459;-72
2022/11/08 05:07:32;;;;;;;8.03;5.87;;;8.40;99.90;;;;;;5030378;28;20232;-72
2022/11/08 05:09:57;;;;;;;6.20;5.23;;;8.40;99.90;;;;;;5029471;28;20463;-72
2022/11/08 05:12:23;;;;;;;9.13;5.53;;;8.40;99.90;;;;;;5014690;28;20212;-71
2022/11/08 05:14:49;;;;;;;8.23;5.43;;;8.40;99.90;;;;;;5029502;28;20220;-72
2022/11/08 05:17:15;;;;;;;7.20;5.20;;;8.40;99.90;;;;;;5039276;28;20220;-71
2022/11/08 05:25:10;;;;;;;9.53;6.10;;;8.30;99.90;;;;;;5024267;28;20443;-72
2022/11/08 05:27:35;;;;;;;6.50;5.00;;;8.30;99.90;;;;;;5029168;28;20481;-72
2022/11/08 05:30:01;;;;;;;8.90;6.03;;;8.30;99.90;;;;;;5009936;28;20252;-72
2022/11/08 05:32:27;;;;;;;6.57;5.50;;;8.30;99.90;;;;;;5037287;28;20224;-72
2022/11/08 05:34:53;;;;;;;7.80;5.73;;;8.30;99.90;;;;;;5029888;28;20492;-72
2022/11/08 05:37:19;;;;;;;8.53;5.83;;;8.30;99.90;;;;;;5038350;28;20221;-72
2022/11/08 05:39:44;;;;;;;9.10;5.80;;;8.30;99.90;;;;;;5042748;28;20232;-72
2022/11/08 05:42:10;;;;;;;9.10;7.00;;;8.30;99.90;;;;;;5039076;28;20220;-72
2022/11/08 05:44:36;;;;;;;10.20;6.73;;;8.30;99.90;;;;;;5028256;28;20303;-71
2022/11/08 05:47:02;;;;;;;8.07;5.57;;;8.30;99.90;;;;;;5029631;28;20259;-72
2022/11/08 05:49:27;;;;;;;9.93;6.20;;;8.30;99.90;;;;;;5035041;28;20219;-72
2022/11/08 05:51:53;;;;;;;8.90;5.93;;;8.30;99.90;;;;;;5028516;28;20232;-72
2022/11/08 05:54:19;;;;;;;8.13;5.93;;;8.30;99.90;;;;;;5018029;28;20289;-72
2022/11/08 05:56:44;;;;;;;9.90;6.50;;;8.30;99.90;;;;;;5032446;28;20220;-72
2022/11/08 05:59:10;;;;;;;10.00;7.23;;;8.30;99.90;;;;;;5012652;28;20267;-72
2022/11/08 06:01:36;;;;;;;8.57;6.33;;;8.20;99.90;;;;;;5027525;28;20258;-72
2022/11/08 06:04:02;;;;;;;11.83;6.87;;;8.10;99.90;;;;;;5028791;28;20209;-71
2022/11/08 06:06:27;;;;;;;10.70;6.43;;;8.10;99.90;;;;;;5028861;28;20247;-72
2022/11/08 06:08:53;;;;;;;8.10;6.17;;;8.10;99.90;;;;;;5010948;28;20252;-72
2022/11/08 06:11:25;;;;;;;9.20;5.77;;;8.20;99.90;;;;;;5028714;28;20227;-72
2022/11/08 06:13:52;;;;;;;5.80;5.27;;;8.20;99.90;;;;;;5029627;28;20220;-72
2022/11/08 06:16:19;;;;;;;8.10;5.40;;;8.10;99.90;;;;;;5032257;28;20986;-71
2022/11/08 06:18:45;;;;;;;8.20;5.40;;;8.10;99.90;;;;;;5037996;28;20455;-72
2022/11/08 06:21:13;;;;;;;10.00;5.93;;;8.10;99.90;;;;;;5034057;28;20454;-72
2022/11/08 06:23:39;;;;;;;8.03;5.97;;;8.10;99.90;;;;;;5048827;28;20821;-72
2022/11/08 06:26:05;;;;;;;9.50;5.43;;;8.10;99.90;;;;;;5050332;28;20443;-72
2022/11/08 06:28:31;;;;;;;8.00;5.90;;;8.10;99.90;;;;;;5015546;28;20278;-72
2022/11/08 06:30:58;;;;;;;9.80;6.07;;;8.10;99.90;;;;;;5012579;28;20452;-71
2022/11/08 06:33:24;;;;;;;6.13;4.93;;;8.00;99.90;;;;;;5046362;28;20474;-72
2022/11/08 06:35:50;;;;;;;7.20;5.10;;;8.00;99.90;;;;;;5031574;28;20517;-72
2022/11/08 06:38:16;;;;;;;7.07;5.67;;;8.00;99.90;;;;;;5044328;28;20548;-72
2022/11/08 06:40:42;;;;;;;8.27;5.43;;;8.00;99.90;;;;;;5057690;28;20461;-72
2022/11/08 06:43:10;;;;;;;5.50;4.50;;;8.00;99.90;;;;;;5036992;28;20224;-72
2022/11/08 06:45:36;;;;;;;7.77;5.87;;;8.00;99.90;;;;;;5032308;28;20274;-72
2022/11/08 06:48:04;;;;;;;7.93;4.97;;;8.00;99.90;;;;;;5031441;28;21007;-71
2022/11/08 06:50:31;;;;;;;8.90;5.53;;;8.00;99.90;;;;;;5022558;28;20465;-72
2022/11/08 06:52:59;;;;;;;6.17;4.43;;;8.00;99.90;;;;;;5036297;28;20464;-72
2022/11/08 06:55:24;;;;;;;5.40;4.40;;;8.00;99.90;;;;;;5037520;28;20468;-71
2022/11/08 06:57:50;;;;;;;7.00;5.10;;;8.00;99.90;;;;;;5035768;28;20622;-72
2022/11/08 07:00:16;;;;;;;7.17;4.87;;;8.00;99.90;;;;;;5047710;28;20274;-72
2022/11/08 07:02:43;;;;;;;8.83;5.27;;;8.00;99.90;;;;;;5049817;28;20518;-72
2022/11/08 07:05:10;;;;;;;6.30;4.50;;;8.00;99.90;;;;;;5041272;28;20270;-73
2022/11/08 07:07:35;;;;;;;8.33;4.20;;;8.00;99.90;;;;;;5041250;28;21033;-71
2022/11/08 07:10:01;;;;;;;7.47;4.77;;;8.00;99.90;;;;;;5040559;28;20456;-72
2022/11/08 07:12:27;;;;;;;5.80;4.90;;;8.00;99.90;;;;;;5038428;28;20242;-72
2022/11/08 07:14:52;;;;;;;6.87;5.00;;;7.80;99.90;;;;;;5033820;28;20231;-72
2022/11/08 07:17:18;;;;;;;5.70;4.53;;;7.80;99.90;;;;;;5017840;28;20222;-72
2022/11/08 07:19:44;;;;;;;6.87;4.57;;;7.90;99.90;;;;;;5031616;28;20228;-72
2022/11/08 07:22:09;;;;;;;4.93;4.40;;;7.90;99.90;;;;;;5034062;28;20227;-70
2022/11/08 07:24:35;;;;;;;4.90;4.07;;;7.90;99.90;;;;;;5039163;28;20308;-72
2022/11/08 07:27:00;;;;;;;6.93;4.40;;;7.90;99.90;;;;;;5035627;28;20253;-71
2022/11/08 07:29:26;;;;;;;5.00;4.27;;;7.90;99.90;;;;;;5026340;28;20759;-72
2022/11/08 07:31:52;;;;;;;7.00;4.63;;;7.90;99.90;;;;;;5015279;28;20216;-72
2022/11/08 07:34:17;;;;;;;7.60;4.80;;;7.90;99.90;;;;;;5028508;28;20217;-72
2022/11/08 07:36:43;;;;;;;6.63;4.93;;;7.90;99.90;;;;;;5028343;28;20229;-73
2022/11/08 07:39:09;;;;;;;7.80;5.27;;;7.90;99.90;;;;;;5021729;28;20224;-72
2022/11/08 07:41:34;;;;;;;8.13;5.50;;;7.90;99.90;;;;;;5046306;28;20267;-72
2022/11/08 07:44:00;;;;;;;8.17;5.80;;;7.90;99.90;;;;;;5031880;28;20212;-73
2022/11/08 07:46:25;;;;;;;6.70;5.50;;;7.90;99.90;;;;;;5021814;28;20219;-72
2022/11/08 07:48:51;;;;;;;8.13;4.77;;;7.90;99.90;;;;;;5046403;28;20239;-72
2022/11/08 07:51:17;;;;;;;5.70;4.27;;;7.90;99.90;;;;;;5034682;28;20217;-72
2022/11/08 07:53:43;;;;;;;4.70;4.30;;;7.90;99.90;;;;;;5053224;28;20220;-73
2022/11/08 07:56:09;;;;;;;6.27;4.77;;;7.90;99.90;;;;;;5040460;28;20244;-72
2022/11/08 07:58:35;;;;;;;5.50;4.70;;;7.90;99.90;;;;;;5031468;28;20447;-73
2022/11/08 08:01:02;;;;;;;6.67;5.00;;;7.90;99.90;;;;;;5047663;28;20477;-72
2022/11/08 08:03:28;;;;;;;13.83;8.43;;;7.90;99.90;;;;;;5036987;28;20261;-72
2022/11/08 08:05:54;;;;;;;15.20;9.60;;;7.90;99.90;;;;;;5014002;28;20444;-72
2022/11/08 08:08:20;;;;;;;16.70;9.43;;;7.90;99.90;;;;;;5033189;28;20467;-72
2022/11/08 08:10:46;;;;;;;10.83;7.90;;;7.90;99.90;;;;;;5032201;28;20220;-72
2022/11/08 08:13:12;;;;;;;17.17;9.10;;;8.00;99.90;;;;;;5051731;28;20551;-71
2022/11/08 08:15:38;;;;;;;11.67;7.00;;;8.00;99.90;;;;;;5029253;28;20845;-73
2022/11/08 08:18:06;;;;;;;8.80;6.00;;;8.00;99.90;;;;;;5027501;28;20995;-71
2022/11/08 08:20:32;;;;;;;8.63;6.93;;;8.00;99.90;;;;;;5020275;28;20602;-71
2022/11/08 08:22:58;;;;;;;10.80;6.43;;;8.00;99.90;;;;;;5033061;28;20589;-72
2022/11/08 08:25:25;;;;;;;6.83;5.43;;;8.00;99.90;;;;;;5025493;28;20466;-72
2022/11/08 08:27:55;;;;;;;8.10;5.70;;;8.00;99.90;;;;;;5034519;28;20467;-72
2022/11/08 08:30:23;;;;;;;9.90;5.67;;;8.00;99.90;;;;;;5014291;28;20949;-73
2022/11/08 08:32:49;;;;;;;7.83;6.10;;;8.00;99.90;;;;;;5030189;28;20455;-72
2022/11/08 08:35:14;;;;;;;9.27;7.93;;;8.10;99.90;;;;;;5037751;28;20822;-72
2022/11/08 08:37:40;;;;;;;13.37;9.00;;;8.10;99.90;;;;;;5030168;28;20220;-71
2022/11/08 08:40:07;;;;;;;8.70;7.50;;;8.10;99.90;;;;;;5050857;28;20232;-69
2022/11/08 08:42:33;;;;;;;8.57;6.77;;;8.10;99.90;;;;;;5034154;28;20216;-72
2022/11/08 08:44:59;;;;;;;8.87;7.40;;;8.10;99.90;;;;;;5030278;28;20505;-72
2022/11/08 08:47:25;;;;;;;10.60;6.40;;;8.10;99.90;;;;;;5049469;28;20237;-73
2022/11/08 08:49:51;;;;;;;9.87;6.47;;;8.10;99.90;;;;;;5043778;28;20496;-72
2022/11/08 08:52:16;;;;;;;9.00;6.20;;;8.10;99.90;;;;;;5060214;28;20212;-72
2022/11/08 08:54:42;;;;;;;11.77;6.50;;;8.10;99.90;;;;;;5030692;28;20212;-72
2022/11/08 08:57:08;;;;;;;7.60;5.97;;;8.10;99.90;;;;;;5038092;28;20213;-73
2022/11/08 08:59:33;;;;;;;10.60;6.30;;;8.20;99.90;;;;;;5033527;28;20213;-72
2022/11/08 09:01:59;;;;;;;9.70;6.40;;;8.20;99.90;;;;;;5008788;28;20247;-72
2022/11/08 09:04:27;;;;;;;9.07;5.90;;;8.20;99.90;;;;;;5043625;28;20603;-72
2022/11/08 09:06:52;;;;;;;7.60;5.83;;;8.20;99.90;;;;;;5061273;28;20538;-73
2022/11/08 09:09:18;;;;;;;5.70;5.00;;;8.30;99.90;;;;;;5031259;28;20541;-73
2022/11/08 09:11:44;;;;;;;6.40;4.97;;;8.30;99.90;;;;;;5031441;28;20234;-71
2022/11/08 09:14:09;;;;;;;7.07;5.10;;;8.40;99.90;;;;;;5041621;28;20220;-72
2022/11/08 09:16:35;;;;;;;6.93;5.63;;;8.50;99.90;;;;;;5039292;28;20278;-72
2022/11/08 09:19:01;;;;;;;8.50;6.20;;;8.50;99.90;;;;;;5046175;28;20303;-73
2022/11/08 09:21:26;;;;;;;17.40;8.40;;;8.50;99.90;;;;;;5044704;28;20303;-73
2022/11/08 09:23:52;;;;;;;17.93;10.57;;;8.60;99.90;;;;;;5030923;28;20229;-72
2022/11/08 09:26:18;;;;;;;20.40;12.67;;;8.60;99.90;;;;;;5029109;28;20215;-72
2022/11/08 09:28:43;;;;;;;16.20;11.13;;;8.70;99.90;;;;;;5036518;28;20226;-71
2022/11/08 09:31:11;;;;;;;20.70;11.23;;;8.70;99.90;;;;;;5037426;28;20216;-71
2022/11/08 09:33:39;;;;;;;17.73;9.93;;;8.80;99.90;;;;;;5029169;28;20631;-72
2022/11/08 09:36:06;;;;;;;19.60;9.67;;;8.80;99.90;;;;;;5024019;28;20460;-72
2022/11/08 09:38:32;;;;;;;11.00;7.50;;;8.90;99.90;;;;;;5039367;28;20455;-73
2022/11/08 09:41:19;;;;;;;15.73;8.23;;;8.90;99.90;;;;;;5036493;28;20450;-72
2022/11/08 09:44:19;;;;;;;12.37;7.20;;;9.00;99.90;;;;;;5042667;28;20454;-72
2022/11/08 09:46:51;;;;;;;13.53;8.83;;;9.00;99.90;;;;;;5045585;28;20462;-73
2022/11/08 09:49:29;;;;;;;12.37;7.50;;;9.00;99.90;;;;;;5020139;28;20851;-73
2022/11/08 09:51:57;;;;;;;17.17;8.17;;;9.10;99.90;;;;;;5027594;28;20490;-73
2022/11/08 09:54:34;;;;;;;11.90;7.47;;;9.20;99.90;;;;;;5031392;28;20447;-73
2022/11/08 09:57:03;;;;;;;14.27;9.63;;;9.30;99.90;;;;;;5028274;28;21024;-72
2022/11/08 09:59:43;;;;;;;16.47;9.30;;;9.30;99.90;;;;;;5032384;28;20490;-72
2022/11/08 10:02:19;;;;;;;18.13;9.63;;;9.50;99.90;;;;;;5026770;28;20464;-70
2022/11/08 10:04:57;;;;;;;19.83;10.10;;;9.50;99.90;;;;;;5019307;28;20563;-73
2022/11/08 10:07:37;;;;;;;16.53;8.43;;;9.60;99.90;;;;;;5022777;28;20482;-73
2022/11/08 10:10:13;;;;;;;13.20;9.40;;;9.70;99.90;;;;;;5027893;28;20544;-73
2022/11/08 10:12:59;;;;;;;14.37;8.47;;;9.80;99.90;;;;;;5045948;28;20463;-72
2022/11/08 10:15:35;;;;;;;10.13;6.70;;;9.90;99.90;;;;;;5035254;28;20463;-72
2022/11/08 10:18:15;;;;;;;11.40;7.00;;;10.10;99.90;;;;;;5031847;28;20457;-72
2022/11/08 10:20:59;;;;;;;9.53;5.70;;;10.10;99.90;;;;;;5035068;28;20459;-72
2022/11/08 10:23:51;;;;;;;6.90;5.33;;;10.20;99.90;;;;;;5038670;28;20832;-72
2022/11/08 10:26:26;;;;;;;7.90;5.60;;;10.30;99.90;;;;;;5063663;28;20493;-73
2022/11/08 10:28:59;;;;;;;9.63;5.87;;;10.40;99.90;;;;;;5026562;28;20482;-72
2022/11/08 10:31:29;;;;;;;6.73;5.27;;;10.50;99.90;;;;;;5031010;28;20964;-73
2022/11/08 10:33:58;;;;;;;9.30;5.37;;;10.50;99.90;;;;;;5044013;28;20467;-72
2022/11/08 10:36:36;;;;;;;6.43;5.30;;;10.60;99.90;;;;;;5031947;28;20506;-72
2022/11/08 10:39:07;;;;;;;6.73;5.03;;;10.70;99.90;;;;;;5032844;28;20980;-73
2022/11/08 10:41:37;;;;;;;7.30;5.17;;;10.90;99.90;;;;;;5027170;28;20442;-72
2022/11/08 10:44:12;;;;;;;6.83;5.23;;;11.00;99.90;;;;;;5022556;28;20452;-72
2022/11/08 10:46:46;;;;;;;6.23;4.90;;;11.10;99.90;;;;;;5037071;28;20524;-72
2022/11/08 10:49:29;;;;;;;6.40;4.60;;;11.20;99.90;;;;;;5052395;28;20463;-72
2022/11/08 10:52:22;;;;;;;6.20;4.43;;;11.30;99.90;;;;;;5025619;28;20471;-73
2022/11/08 10:54:50;;;;;;;8.27;5.70;;;11.50;99.90;;;;;;5012970;28;20451;-72
2022/11/08 10:57:16;;;;;;;8.53;3.90;;;11.60;99.90;;;;;;5030953;28;20458;-73
2022/11/08 10:59:43;;;;;;;6.90;4.87;;;11.70;99.90;;;;;;5028625;28;20451;-72
2022/11/08 11:02:20;;;;;;;8.33;5.20;;;11.80;99.90;;;;;;5019744;28;20217;-72
2022/11/08 11:04:47;;;;;;;10.13;6.33;;;11.80;99.90;;;;;;5057571;28;20457;-72
2022/11/08 11:07:32;;;;;;;8.57;5.20;;;11.80;99.90;;;;;;5039141;28;20498;-72
2022/11/08 11:10:25;;;;;;;9.73;6.70;;;11.80;99.90;;;;;;5062798;28;20447;-73
2022/11/08 11:13:04;;;;;;;8.23;6.57;;;11.90;99.90;;;;;;5032105;28;20457;-73
2022/11/08 11:15:34;;;;;;;6.90;5.87;;;11.90;99.90;;;;;;5041521;28;20446;-73
2022/11/08 11:18:00;;;;;;;10.17;6.00;;;11.90;99.90;;;;;;5043077;28;21059;-73
2022/11/08 11:20:26;;;;;;;8.60;5.80;;;11.90;99.90;;;;;;5038672;28;20466;-73
2022/11/08 11:22:52;;;;;;;5.77;4.93;;;11.90;99.90;;;;;;5032877;28;20546;-73
2022/11/08 11:25:22;;;;;;;7.13;5.47;;;11.90;99.90;;;;;;5034451;28;20447;-72
2022/11/08 11:28:00;;;;;;;8.17;5.80;;;12.00;99.90;;;;;;5030892;28;20474;-71
2022/11/08 11:30:34;;;;;;;11.20;5.30;;;12.00;99.90;;;;;;5047622;28;20495;-73
2022/11/08 11:33:00;;;;;;;5.73;5.10;;;12.00;99.90;;;;;;5027736;28;20484;-73
2022/11/08 11:35:32;;;;;;;6.40;4.83;;;12.00;99.90;;;;;;5032326;28;20531;-72
2022/11/08 11:38:00;;;;;;;7.50;4.97;;;12.00;99.90;;;;;;5045544;28;20746;-73
2022/11/08 11:40:35;;;;;;;5.30;4.80;;;12.00;99.90;;;;;;5032214;28;20868;-72
2022/11/08 11:43:08;;;;;;;5.93;5.20;;;12.10;99.90;;;;;;5059806;28;20988;-73
2022/11/08 11:45:46;;;;;;;6.60;4.80;;;12.10;99.90;;;;;;5030795;28;20969;-72
2022/11/08 11:48:34;;;;;;;7.63;5.17;;;12.10;99.90;;;;;;5035327;28;20498;-73
2022/11/08 11:51:01;;;;;;;4.80;4.30;;;12.20;99.90;;;;;;5021840;28;20964;-72
2022/11/08 11:53:37;;;;;;;5.20;4.70;;;12.20;99.90;;;;;;5036579;28;21046;-72
2022/11/08 11:56:25;;;;;;;4.80;3.80;;;12.20;99.90;;;;;;5025553;28;20830;-73
2022/11/08 11:59:00;;;;;;;5.60;4.53;;;12.20;99.90;;;;;;5028553;28;20455;-73
2022/11/08 12:01:37;;;;;;;6.53;5.10;;;12.30;99.90;;;;;;5033086;28;20477;-72
2022/11/08 12:04:20;;;;;;;6.87;4.90;;;12.30;99.90;;;;;;5049322;28;20460;-72
2022/11/08 12:06:46;;;;;;;6.00;4.30;;;12.30;99.90;;;;;;5038260;28;20470;-73
2022/11/08 12:09:32;;;;;;;6.00;4.77;;;12.30;99.90;;;;;;5042794;28;20462;-73
2022/11/08 12:12:43;;;;;;;8.70;6.87;;;12.30;99.90;;;;;;5030975;28;20220;-73
2022/11/08 12:15:26;;;;;;;8.27;7.40;;;12.40;99.90;;;;;;5025832;28;20487;-73
2022/11/08 12:18:19;;;;;;;11.70;8.10;;;12.40;99.90;;;;;;5015335;28;20454;-72
2022/11/08 12:20:57;;;;;;;12.90;8.13;;;12.40;99.90;;;;;;5026387;28;20455;-73
2022/11/08 12:23:46;;;;;;;7.90;6.70;;;12.40;99.90;;;;;;5020433;28;20471;-72
2022/11/08 12:26:25;;;;;;;6.90;6.00;;;12.40;99.90;;;;;;5027837;28;20467;-73
2022/11/08 12:29:02;;;;;;;10.80;6.10;;;12.50;99.90;;;;;;5029403;28;20475;-73
2022/11/08 12:31:34;;;;;;;6.63;6.03;;;12.50;99.90;;;;;;5028279;28;21061;-73
2022/11/08 12:34:18;;;;;;;9.83;7.30;;;12.50;99.90;;;;;;5025085;28;20487;-72
2022/11/08 12:36:52;;;;;;;11.07;6.70;;;12.50;99.90;;;;;;5039162;28;20464;-72
2022/11/08 12:39:44;;;;;;;10.40;7.50;;;12.50;99.90;;;;;;5054212;28;20526;-73
2022/11/08 12:42:37;;;;;;;6.40;5.50;;;12.60;99.90;;;;;;5038802;28;20972;-73
2022/11/08 12:45:19;;;;;;;11.30;6.60;;;12.60;99.90;;;;;;5050229;28;20568;-73
2022/11/08 12:48:27;;;;;;;8.73;5.43;;;12.70;99.90;;;;;;5039061;28;20481;-72
2022/11/08 12:51:04;;;;;;;7.93;5.90;;;12.90;99.90;;;;;;5056896;28;20592;-73
2022/11/08 12:53:54;;;;;;;7.93;5.80;;;12.90;99.90;;;;;;5041831;28;20450;-73
2022/11/08 12:56:26;;;;;;;15.03;7.27;;;12.90;99.90;;;;;;5034485;28;20454;-73
2022/11/08 12:58:54;;;;;;;11.20;6.10;;;13.00;99.90;;;;;;5034758;28;20595;-73
2022/11/08 13:01:21;;;;;;;8.80;5.90;;;13.00;99.90;;;;;;5025673;28;20442;-73
2022/11/08 13:03:53;;;;;;;11.43;8.13;;;13.00;99.90;;;;;;5045188;28;20452;-71
2022/11/08 13:07:02;;;;;;;7.60;6.27;;;13.10;99.90;;;;;;5037454;28;20959;-72
2022/11/08 13:09:51;;;;;;;10.13;6.20;;;13.10;99.90;;;;;;5040047;28;20455;-73
2022/11/08 13:12:38;;;;;;;9.60;5.97;;;13.20;99.90;;;;;;5032622;28;20443;-72
2022/11/08 13:15:12;;;;;;;6.10;4.83;;;13.30;99.90;;;;;;5043090;28;20881;-72
2022/11/08 13:17:38;;;;;;;7.20;5.47;;;13.30;99.90;;;;;;5029964;28;20470;-73
2022/11/08 13:20:22;;;;;;;8.23;5.30;;;13.30;99.90;;;;;;5029027;28;20459;-72
2022/11/08 13:22:59;;;;;;;6.90;5.77;;;13.40;99.90;;;;;;5053345;28;20224;-72
2022/11/08 13:25:33;;;;;;;11.70;5.37;;;13.50;99.90;;;;;;5040913;28;20462;-72
2022/11/08 13:27:58;;;;;;;6.93;5.10;;;13.50;99.90;;;;;;5028081;28;20992;-73
2022/11/08 13:30:24;;;;;;;7.67;5.10;;;13.60;99.90;;;;;;5041245;28;20474;-73